Malindi, Malindi Airport (HKML)

NameMalindi Airport
CityMalindi
CountryKenya
ICAOHKML
IATAMYD
Altitude24 m
CoordinatesGoogle Map
Live Air TrafficLiveATC.net
METARHKML 251700Z 18006KT 9999 FEW018 26/24 Q1011
2020-04-25 17:00:00 Wind: South (180°) 3.09 m/s - Visibility: > 10000 m - Temperature: 26 °C - Dew point: 24 °C - Humidity: 88.8% - Pressure: 1011 hPa

Sorry, no flights used the airport in this database.